Terminal Aerodrome Forecast
Issued by NWS Duluth, MN

Home | Current Version | Previous Version | Text Only | Print | Product List | Glossary On
Versions: 1 2 3 4 5 6 7 8 9 10 11 12 13 14 15 16 17 18 19 20 21 22 23 24 25 26 27 28 29 30
000
FTUS43 KDLH 260312 AAA
TAFDLH
TAF AMD
KDLH 260312Z 2603/2624 01009KT P6SM VCSH SCT008 OVC016
     FM260500 04009KT 6SM -SHRA BR SCT008 OVC012
     FM260700 06011KT 1 1/2SM -SHRA BR OVC005
     FM261600 05006KT 3SM -SHRA BR OVC004
     FM261800 33007KT P6SM OVC010=

USA.gov is the U.S. government's official web portal to all federal, state and local government web resources and services.